• Join FlightAware (Why Join?)
  • Login
  • US Flag 
05:00PM EDT


 

Airport Tracker/Info


-or-


 

Live Flight TrackerFlight Track Log ✈ CSN6013 ✈ 14-Feb-2014 ✈ ZWWW / URC - UACC / TSE

Flight Track Log - Related Links

Times and Time Zones

All times are in EST time to prevent confusion due to time zone crossing. See the CSN6013 flight status page for this flight to view local times or setup timezone preferences in your user account.

Time Position Orientation Groundspeed Altitude Reporting Facility
EST Latitude Longitude Course Direction KTS MPH feet Rate Location/Type
04:16AM 46.0645 83.5245 309° West  Level Estimated
04:17AM 46.1154 83.4244 306° West  Level Estimated
04:18AM 46.1662 83.3241 306° West  Level Estimated
04:19AM 46.2169 83.2236 306° West  Level Estimated
04:20AM 46.2675 83.1230 306° West  Level Estimated
04:21AM 46.3180 83.0221 306° West  Level Estimated
04:22AM 46.3685 82.9211 306° West  Level Estimated
04:23AM 46.4188 82.8199 306° West  Level Estimated
04:24AM 46.4691 82.7185 306° West  Level Estimated
04:25AM 46.5192 82.6169 306° West  Level Estimated
04:26AM 46.5693 82.5151 306° West  Level Estimated
04:27AM 46.6193 82.4131 306° West  Level Estimated
04:28AM 46.6692 82.3110 305° West  Level Estimated
04:29AM 46.7190 82.2086 305° West  Level Estimated
04:30AM 46.7687 82.1061 305° West  Level Estimated
04:31AM 46.8183 82.0033 305° West  Level Estimated
04:32AM 46.8678 81.9004 305° West  Level Estimated
04:33AM 46.9173 81.7973 305° West  Level Estimated
04:34AM 46.9666 81.6940 305° West  Level Estimated
04:35AM 47.0159 81.5905 305° West  Level Estimated
04:36AM 47.0650 81.4868 305° West  Level Estimated
04:37AM 47.1141 81.3830 305° West  Level Estimated
04:38AM 47.1631 81.2789 305° West  Level Estimated
04:39AM 47.2119 81.1747 305° West  Level Estimated
04:40AM 47.2607 81.0702 305° West  Level Estimated
04:41AM 47.3094 80.9656 304° West  Level Estimated
04:42AM 47.3580 80.8607 304° West  Level Estimated
04:43AM 47.4065 80.7557 304° West  Level Estimated
04:44AM 47.4549 80.6505 304° West  Level Estimated
04:45AM 47.5032 80.5451 304° West  Level Estimated
04:46AM 47.5514 80.4395 304° West  Level Estimated
04:47AM 47.5995 80.3337 304° West  Level Estimated
04:48AM 47.6475 80.2277 304° West  Level Estimated
04:49AM 47.6954 80.1215 304° West  Level Estimated
04:50AM 47.7432 80.0151 304° West  Level Estimated
04:51AM 47.7909 79.9086 304° West  Level Estimated
04:52AM 47.8385 79.8018 304° West  Level Estimated
04:53AM 47.8861 79.6948 304° West  Level Estimated
04:54AM 47.9335 79.5877 303° West  Level Estimated
04:55AM 47.9808 79.4803 303° West  Level Estimated
04:56AM 48.0280 79.3727 303° West  Level Estimated
04:57AM 48.0751 79.2650 303° West  Level Estimated
04:58AM 48.1222 79.1570 303° West  Level Estimated
04:59AM 48.1691 79.0489 303° West  Level Estimated
05:00AM 48.2159 78.9405 303° West  Level Estimated
05:01AM 48.2626 78.8320 303° West  Level Estimated
05:02AM 48.3092 78.7232 303° West  Level Estimated
05:03AM 48.3557 78.6143 303° West  Level Estimated
05:04AM 48.4021 78.5052 303° West  Level Estimated
05:05AM 48.4484 78.3958 303° West  Level Estimated
05:06AM 48.4946 78.2863 303° West  Level Estimated
05:07AM 48.5407 78.1765 302° West  Level Estimated
05:08AM 48.5867 78.0666 302° West  Level Estimated
05:09AM 48.6326 77.9565 302° West  Level Estimated
05:10AM 48.6783 77.8461 302° West  Level Estimated
05:11AM 48.7240 77.7356 302° West  Level Estimated
05:12AM 48.7696 77.6248 302° West  Level Estimated
05:13AM 48.8150 77.5139 302° West  Level Estimated
05:14AM 48.8604 77.4028 302° West  Level Estimated
05:15AM 48.9056 77.2914 302° West  Level Estimated
05:16AM 48.9508 77.1799 302° West  Level Estimated
05:17AM 48.9958 77.0681 302° West  Level Estimated
05:18AM 49.0407 76.9562 302° West  Level Estimated
05:19AM 49.0855 76.8440 301° West  Level Estimated
05:20AM 49.1302 76.7317 301° West  Level Estimated
05:21AM 49.1748 76.6191 301° West  Level Estimated
05:22AM 49.2193 76.5063 301° West  Level Estimated
05:23AM 49.2637 76.3934 301° West  Level Estimated
05:24AM 49.3080 76.2802 301° West  Level Estimated
05:25AM 49.3521 76.1668 301° West  Level Estimated
05:26AM 49.3962 76.0533 301° West  Level Estimated
05:27AM 49.4401 75.9395 301° West  Level Estimated
05:28AM 49.4839 75.8255 301° West  Level Estimated
05:29AM 49.5276 75.7113 301° West  Level Estimated
05:30AM 49.5712 75.5969 300° West  Level Estimated
05:31AM 49.6147 75.4824 300° West  Level Estimated
05:32AM 49.6581 75.3676 300° West  Level Estimated
05:33AM 49.7013 75.2526 300° West  Level Estimated
05:34AM 49.7445 75.1374 300° West  Level Estimated
05:35AM 49.7875 75.0219 300° West  Level Estimated
05:36AM 49.8304 74.9063 300° West  Level Estimated
05:37AM 49.8732 74.7905 300° West  Level Estimated
05:38AM 49.9159 74.6745 300° West  Level Estimated
05:39AM 49.9585 74.5582 300° West  Level Estimated
05:40AM 50.0009 74.4418 300° West  Level Estimated
05:41AM 50.0433 74.3252 300° West  Level Estimated
05:42AM 50.0855 74.2083 299° West  Level Estimated
05:43AM 50.1276 74.0913 299° West  Level Estimated
05:44AM 50.1696 73.9740 299° West  Level Estimated
05:45AM 50.2114 73.8565 299° West  Level Estimated
05:46AM 50.2532 73.7389 299° West  Level Estimated
05:47AM 50.2948 73.6210 299° West  Level Estimated
05:48AM 50.3363 73.5029 299° West  Level Estimated
05:49AM 50.3777 73.3846 299° West  Level Estimated
05:50AM 50.4189 73.2661 299° West  Level Estimated
05:51AM 50.4601 73.1474 299° West  Level Estimated
05:52AM 50.5011 73.0285 299° West  Level Estimated
05:53AM 50.5420 72.9094 298° West  Level Estimated
05:54AM 50.5828 72.7901 298° West  Level Estimated
05:55AM 50.6234 72.6705 298° West  Level Estimated
05:56AM 50.6640 72.5508 298° West  Level Estimated
05:57AM 50.7044 72.4309 298° West  Level Estimated
05:58AM 50.7447 72.3107 298° West  Level Estimated
05:59AM 50.7848 72.1904 298° West  Level Estimated
06:00AM 50.8249 72.0698 298° West  Level Estimated
06:01AM 50.8648 71.9490 298° West  Level Estimated
06:02AM 50.9046 71.8281 298° West  Level Estimated
06:03AM 50.9442 71.7069 297° West  Level Estimated
06:04AM 50.9838 71.5855 297° West  Level Estimated
06:05AM 51.0222 71.4669 297° West  Level Estimated
06:06AM 51.0222 71.4669 52° Northeast  Level Estimated
06:07AM 51.0222 71.4669 52° Northeast  Level Estimated
06:08AM 51.0222 71.4669 52° Northeast  Level Estimated
06:09AM 51.0222 71.4669 52° Northeast  Level Estimated